Time;durP1;ratioP1;P1;durP2;ratioP2;P2;SDS_P1;SDS_P2;PMS_P1;PMS_P2;Temp;Humidity;BMP_temperature;BMP_pressure;BME280_temperature;BME280_humidity;BME280_pressure;Samples;Min_cycle;Max_cycle;Signal;HPM_P1;HPM_P2
2022/07/18 00:02:02;;;;;;;4.30;3.13;;;15.80;99.90;;;;;;5020569;28;20594;-59
2022/07/18 00:04:30;;;;;;;7.73;3.47;;;15.80;99.90;;;;;;5020074;28;20467;-56
2022/07/18 00:06:57;;;;;;;3.50;3.10;;;15.80;99.90;;;;;;5020001;28;20469;-58
2022/07/18 00:09:25;;;;;;;3.87;3.43;;;15.70;99.90;;;;;;5020135;28;20467;-57
2022/07/18 00:11:53;;;;;;;5.33;3.50;;;15.70;99.90;;;;;;5019700;28;20459;-58
2022/07/18 00:14:22;;;;;;;5.60;3.67;;;15.60;99.90;;;;;;5019916;28;20464;-56
2022/07/18 00:16:53;;;;;;;3.70;2.90;;;15.60;99.90;;;;;;5020134;28;20468;-57
2022/07/18 00:19:24;;;;;;;3.90;3.20;;;15.60;99.90;;;;;;5020259;28;20943;-55
2022/07/18 00:21:52;;;;;;;3.77;3.20;;;15.50;99.90;;;;;;5019982;28;20525;-58
2022/07/18 00:24:19;;;;;;;4.73;3.30;;;15.50;99.90;;;;;;5019683;28;20439;-56
2022/07/18 00:26:46;;;;;;;4.10;3.00;;;15.40;99.90;;;;;;5020181;28;20475;-58
2022/07/18 00:29:16;;;;;;;5.83;2.83;;;15.30;99.90;;;;;;5019570;28;20464;-58
2022/07/18 00:31:44;;;;;;;3.00;2.80;;;15.40;99.90;;;;;;5018969;28;20738;-56
2022/07/18 00:34:14;;;;;;;4.30;3.20;;;15.30;99.90;;;;;;5020025;28;20464;-52
2022/07/18 00:36:49;;;;;;;3.60;3.17;;;15.30;99.90;;;;;;5019573;28;20567;-58
2022/07/18 00:39:16;;;;;;;3.70;2.93;;;15.20;99.90;;;;;;5020200;28;20530;-57
2022/07/18 00:41:48;;;;;;;3.20;2.77;;;15.30;99.90;;;;;;5019788;28;20758;-57
2022/07/18 00:44:19;;;;;;;4.23;3.53;;;15.30;99.90;;;;;;5019988;28;20460;-57
2022/07/18 00:46:50;;;;;;;3.37;3.07;;;15.30;99.90;;;;;;5019322;28;20507;-55
2022/07/18 00:49:22;;;;;;;3.03;2.50;;;15.30;99.90;;;;;;5019646;28;20499;-58
2022/07/18 00:51:49;;;;;;;3.50;3.20;;;15.30;99.90;;;;;;5019639;28;20790;-58
2022/07/18 00:54:20;;;;;;;6.03;3.10;;;15.20;99.90;;;;;;5019502;28;20555;-55
2022/07/18 00:56:49;;;;;;;4.70;3.00;;;15.10;99.90;;;;;;5019522;28;20472;-57
2022/07/18 00:59:17;;;;;;;4.87;3.10;;;15.10;99.90;;;;;;5019201;28;20475;-58
2022/07/18 01:01:46;;;;;;;5.00;3.30;;;15.00;99.90;;;;;;5019280;28;20936;-55
2022/07/18 01:04:23;;;;;;;4.90;3.20;;;14.90;99.90;;;;;;5019335;28;20468;-55
2022/07/18 01:06:52;;;;;;;3.40;2.70;;;14.90;99.90;;;;;;5018977;28;20438;-57
2022/07/18 01:09:20;;;;;;;3.40;2.63;;;14.90;99.90;;;;;;5019446;28;20439;-58
2022/07/18 01:11:49;;;;;;;3.27;2.60;;;14.90;99.90;;;;;;5018939;28;20434;-56
2022/07/18 01:14:19;;;;;;;4.03;3.10;;;14.90;99.90;;;;;;5018411;28;20459;-57
2022/07/18 01:16:49;;;;;;;4.83;3.10;;;14.80;99.90;;;;;;5018987;28;20884;-52
2022/07/18 01:19:19;;;;;;;3.13;2.70;;;14.80;99.90;;;;;;5019406;28;20467;-56
2022/07/18 01:21:48;;;;;;;5.20;3.00;;;14.80;99.90;;;;;;5019294;28;20488;-57
2022/07/18 01:24:15;;;;;;;3.23;2.90;;;14.70;99.90;;;;;;5018467;28;20499;-57
2022/07/18 01:26:43;;;;;;;4.80;3.40;;;14.70;99.90;;;;;;5018504;28;20479;-55
2022/07/18 01:29:14;;;;;;;3.60;3.30;;;14.70;99.90;;;;;;5018441;28;20754;-57
2022/07/18 01:31:43;;;;;;;3.80;3.37;;;14.70;99.90;;;;;;5018803;28;20888;-58
2022/07/18 01:34:11;;;;;;;3.23;2.93;;;14.70;99.90;;;;;;5019168;28;20555;-58
2022/07/18 01:36:40;;;;;;;4.73;3.50;;;14.70;99.90;;;;;;5018206;28;20460;-58
2022/07/18 01:39:09;;;;;;;4.70;3.03;;;14.70;99.90;;;;;;5018788;28;20563;-58
2022/07/18 01:45:23;;;;;;;4.90;3.47;;;14.70;99.90;;;;;;5018294;28;20420;-58
2022/07/18 01:47:51;;;;;;;3.70;3.40;;;14.60;99.90;;;;;;5018717;28;20439;-57
2022/07/18 01:50:21;;;;;;;5.03;3.20;;;14.50;99.90;;;;;;5018329;28;20841;-53
2022/07/18 01:52:48;;;;;;;3.60;2.90;;;14.50;99.90;;;;;;5018148;28;20489;-58
2022/07/18 01:55:17;;;;;;;9.13;3.33;;;14.50;99.90;;;;;;5017813;28;20830;-52
2022/07/18 01:57:44;;;;;;;3.50;3.00;;;14.50;99.90;;;;;;5018491;28;20483;-56
2022/07/18 02:00:14;;;;;;;3.90;2.70;;;14.40;99.90;;;;;;5018257;28;20464;-55
2022/07/18 02:02:42;;;;;;;3.10;2.80;;;14.40;99.90;;;;;;5018014;28;20587;-58
2022/07/18 02:05:09;;;;;;;4.13;3.00;;;14.40;99.90;;;;;;5017963;28;20460;-57
2022/07/18 02:07:40;;;;;;;4.57;3.47;;;14.40;99.90;;;;;;5018035;28;20464;-56
2022/07/18 02:10:12;;;;;;;4.67;3.50;;;14.40;99.90;;;;;;5018267;28;20483;-54
2022/07/18 02:12:42;;;;;;;3.63;2.80;;;14.40;99.90;;;;;;5017778;28;20459;-56
2022/07/18 02:15:14;;;;;;;4.40;2.80;;;14.30;99.90;;;;;;5018388;28;20550;-56
2022/07/18 02:17:44;;;;;;;9.10;3.97;;;14.30;99.90;;;;;;5018592;28;20491;-54
2022/07/18 02:20:13;;;;;;;3.50;3.03;;;14.20;99.90;;;;;;5018294;28;21434;-58
2022/07/18 02:22:41;;;;;;;5.50;3.40;;;14.10;99.90;;;;;;5017552;28;20900;-58
2022/07/18 02:25:10;;;;;;;5.90;3.00;;;14.10;99.90;;;;;;5017605;28;20562;-57
2022/07/18 02:27:37;;;;;;;3.83;3.30;;;14.10;99.90;;;;;;5017083;28;20522;-58
2022/07/18 02:30:08;;;;;;;4.30;3.13;;;14.10;99.90;;;;;;5017733;28;20530;-57
2022/07/18 02:32:37;;;;;;;3.57;3.20;;;13.90;99.90;;;;;;5017842;28;20488;-58
2022/07/18 02:35:06;;;;;;;5.60;3.27;;;13.90;99.90;;;;;;5017808;28;20479;-58
2022/07/18 02:37:34;;;;;;;3.90;3.43;;;13.90;99.90;;;;;;5017504;28;20915;-57
2022/07/18 02:40:01;;;;;;;4.07;2.80;;;13.90;99.90;;;;;;5017902;28;20621;-57
2022/07/18 02:42:30;;;;;;;4.03;3.33;;;13.90;99.90;;;;;;5017400;28;21007;-57
2022/07/18 02:44:57;;;;;;;4.97;3.43;;;13.80;99.90;;;;;;5017635;28;20542;-58
2022/07/18 02:47:25;;;;;;;5.37;3.23;;;13.80;99.90;;;;;;5017585;28;20523;-58
2022/07/18 02:49:53;;;;;;;3.20;2.90;;;13.80;99.90;;;;;;5017482;28;20950;-55
2022/07/18 02:52:23;;;;;;;4.70;3.20;;;13.80;99.90;;;;;;5017024;28;20468;-58
2022/07/18 02:54:51;;;;;;;5.40;2.80;;;13.80;99.90;;;;;;5017154;28;20464;-58
2022/07/18 02:57:18;;;;;;;5.03;3.27;;;13.70;99.90;;;;;;5016946;28;20848;-51
2022/07/18 02:59:47;;;;;;;3.50;2.70;;;13.70;99.90;;;;;;5017363;28;20597;-58
2022/07/18 03:02:17;;;;;;;4.17;2.63;;;13.70;99.90;;;;;;5016691;28;20496;-58
2022/07/18 03:04:46;;;;;;;4.03;3.37;;;13.60;99.90;;;;;;5017538;28;20737;-58
2022/07/18 03:07:14;;;;;;;6.80;3.63;;;13.60;99.90;;;;;;5017230;28;20461;-58
2022/07/18 03:09:42;;;;;;;5.80;2.60;;;13.50;99.90;;;;;;5017591;28;20464;-58
2022/07/18 03:12:11;;;;;;;4.20;3.30;;;13.50;99.90;;;;;;5017680;28;20745;-58
2022/07/18 03:14:39;;;;;;;3.70;3.30;;;13.50;99.90;;;;;;5016951;28;20558;-58
2022/07/18 03:17:06;;;;;;;3.80;2.97;;;13.50;99.90;;;;;;5017235;28;20558;-57
2022/07/18 03:19:33;;;;;;;4.00;3.30;;;13.60;99.90;;;;;;5017931;28;20812;-55
2022/07/18 03:22:02;;;;;;;6.03;2.80;;;13.50;99.90;;;;;;5017336;28;20591;-58
2022/07/18 03:24:30;;;;;;;3.17;2.60;;;13.60;99.90;;;;;;5016947;28;20446;-58
2022/07/18 03:26:57;;;;;;;4.43;2.67;;;13.60;99.90;;;;;;5017077;28;20427;-58
2022/07/18 03:29:25;;;;;;;3.60;3.20;;;13.70;99.90;;;;;;5017087;28;20859;-56
2022/07/18 03:31:52;;;;;;;4.77;2.77;;;13.70;99.90;;;;;;5016566;28;20458;-58
2022/07/18 03:34:20;;;;;;;4.60;3.47;;;13.70;99.90;;;;;;5017165;28;20468;-58
2022/07/18 03:36:47;;;;;;;3.50;2.63;;;13.60;99.90;;;;;;5017415;28;20463;-58
2022/07/18 03:39:16;;;;;;;4.93;3.00;;;13.60;99.90;;;;;;5017219;28;20566;-58
2022/07/18 03:41:45;;;;;;;4.87;3.17;;;13.60;99.90;;;;;;5016977;28;20920;-56
2022/07/18 03:44:12;;;;;;;4.47;2.43;;;13.50;99.90;;;;;;5016775;28;20760;-58
2022/07/18 03:46:39;;;;;;;5.50;2.40;;;13.60;99.90;;;;;;5016765;28;20963;-58
2022/07/18 03:49:06;;;;;;;3.60;3.27;;;13.50;99.90;;;;;;5016583;28;20582;-58
2022/07/18 03:51:34;;;;;;;3.30;2.40;;;13.50;99.90;;;;;;5016989;28;20558;-58
2022/07/18 03:54:01;;;;;;;5.10;3.00;;;13.50;99.90;;;;;;5017054;28;20466;-56
2022/07/18 03:56:29;;;;;;;4.07;3.03;;;13.60;99.90;;;;;;5013823;28;20518;-57
2022/07/18 03:59:04;;;;;;;4.27;2.97;;;13.60;99.90;;;;;;5016360;28;20460;-54
2022/07/18 04:01:32;;;;;;;3.57;2.80;;;13.50;99.90;;;;;;5017055;28;20531;-58
2022/07/18 04:03:59;;;;;;;4.30;3.50;;;13.60;99.90;;;;;;5016855;28;20627;-57
2022/07/18 04:06:26;;;;;;;6.63;2.60;;;13.50;99.90;;;;;;5017882;28;20956;-57
2022/07/18 04:08:55;;;;;;;3.53;3.03;;;13.60;99.90;;;;;;5020340;28;20464;-58
2022/07/18 04:11:23;;;;;;;3.37;2.80;;;13.60;99.90;;;;;;5020221;28;20732;-57
2022/07/18 04:13:52;;;;;;;4.40;2.93;;;13.60;99.90;;;;;;5019885;28;20467;-58
2022/07/18 04:16:20;;;;;;;3.90;3.47;;;13.50;99.90;;;;;;5020071;28;20554;-58
2022/07/18 04:18:48;;;;;;;5.33;4.17;;;13.60;99.90;;;;;;5020373;28;20562;-58
2022/07/18 04:21:19;;;;;;;3.90;3.07;;;13.60;99.90;;;;;;5020042;28;20562;-58
2022/07/18 04:23:46;;;;;;;8.17;3.97;;;13.60;99.90;;;;;;5020634;28;20979;-53
2022/07/18 04:26:16;;;;;;;3.53;3.00;;;13.70;99.90;;;;;;5019800;28;20690;-58
2022/07/18 04:28:44;;;;;;;5.20;3.20;;;13.70;99.90;;;;;;5019130;28;20813;-55
2022/07/18 04:31:12;;;;;;;6.00;3.40;;;13.80;99.90;;;;;;5020001;28;20464;-55
2022/07/18 04:33:40;;;;;;;6.90;3.40;;;13.90;99.90;;;;;;5020273;28;20507;-58
2022/07/18 04:36:08;;;;;;;3.90;3.50;;;13.90;99.90;;;;;;5020254;28;20466;-58
2022/07/18 04:38:37;;;;;;;3.80;3.20;;;13.80;99.90;;;;;;5019520;28;20496;-58
2022/07/18 04:41:07;;;;;;;6.30;3.97;;;13.90;99.90;;;;;;5019603;28;20763;-58
2022/07/18 04:43:35;;;;;;;4.70;3.30;;;13.90;99.90;;;;;;5019668;28;20496;-58
2022/07/18 04:46:03;;;;;;;4.67;3.80;;;14.00;99.90;;;;;;5019248;28;20525;-57
2022/07/18 04:48:34;;;;;;;3.60;3.20;;;14.10;99.90;;;;;;5019314;28;20583;-56
2022/07/18 04:51:02;;;;;;;6.83;4.10;;;14.20;99.90;;;;;;5019393;28;20519;-58
2022/07/18 04:53:32;;;;;;;5.43;3.03;;;14.20;99.90;;;;;;5018827;28;20484;-57
2022/07/18 04:56:02;;;;;;;5.53;3.33;;;14.30;99.90;;;;;;5017831;28;20765;-58
2022/07/18 04:58:29;;;;;;;5.00;3.77;;;14.30;99.90;;;;;;5018046;28;20530;-56
2022/07/18 05:00:57;;;;;;;7.87;3.93;;;14.40;99.90;;;;;;5018707;28;20474;-57
2022/07/18 05:03:24;;;;;;;9.97;3.70;;;14.50;99.90;;;;;;5019178;28;20936;-59
2022/07/18 05:05:53;;;;;;;4.63;4.10;;;14.50;99.90;;;;;;5018947;28;20471;-56
2022/07/18 05:08:22;;;;;;;4.53;3.13;;;14.70;99.90;;;;;;5018525;28;20542;-58
2022/07/18 05:10:49;;;;;;;9.73;5.00;;;14.70;99.90;;;;;;5018450;28;20460;-58
2022/07/18 05:13:18;;;;;;;7.23;3.37;;;14.80;99.90;;;;;;5018995;28;20481;-59
2022/07/18 05:15:46;;;;;;;5.70;3.17;;;14.80;99.90;;;;;;5018906;28;20500;-58
2022/07/18 05:18:14;;;;;;;7.97;3.77;;;14.90;99.90;;;;;;5017623;28;20860;-59
2022/07/18 05:20:42;;;;;;;3.50;3.20;;;15.00;99.90;;;;;;5018642;28;20522;-59
2022/07/18 05:23:15;;;;;;;7.83;4.20;;;15.20;99.90;;;;;;5018820;28;20496;-58
2022/07/18 05:25:45;;;;;;;4.83;3.63;;;15.30;99.90;;;;;;5018946;28;20665;-59
2022/07/18 05:28:12;;;;;;;6.07;2.90;;;15.40;99.90;;;;;;5017456;28;20936;-59
2022/07/18 05:30:39;;;;;;;4.03;2.90;;;15.50;99.90;;;;;;5018477;28;20545;-59
2022/07/18 05:33:07;;;;;;;5.00;3.70;;;15.70;99.90;;;;;;5015841;28;20475;-59
2022/07/18 05:35:34;;;;;;;4.87;3.63;;;15.90;99.90;;;;;;5017374;28;20427;-59
2022/07/18 05:38:03;;;;;;;5.53;3.87;;;16.00;99.90;;;;;;5017420;28;20535;-59
2022/07/18 05:40:32;;;;;;;4.10;3.70;;;16.20;99.90;;;;;;5018162;28;20818;-59
2022/07/18 05:42:59;;;;;;;4.40;3.67;;;16.30;99.90;;;;;;5018038;28;20557;-59
2022/07/18 05:45:44;;;;;;;5.47;3.30;;;16.40;99.90;;;;;;5018570;28;20816;-59
2022/07/18 05:48:12;;;;;;;7.50;4.20;;;16.60;99.90;;;;;;4999178;28;20495;-59
2022/07/18 05:50:39;;;;;;;7.53;3.70;;;16.90;99.90;;;;;;5018167;28;20563;-59
2022/07/18 05:53:09;;;;;;;10.00;3.43;;;17.10;99.90;;;;;;5018295;28;20833;-59
2022/07/18 05:55:43;;;;;;;4.37;3.37;;;17.30;99.90;;;;;;5018694;28;20883;-59
2022/07/18 05:58:10;;;;;;;7.13;3.97;;;17.60;99.90;;;;;;5018135;28;20555;-60
2022/07/18 06:00:38;;;;;;;5.60;3.20;;;17.90;99.90;;;;;;5017840;28;20618;-60
2022/07/18 06:03:08;;;;;;;7.03;3.40;;;18.40;99.90;;;;;;5018097;28;20563;-59
2022/07/18 06:05:40;;;;;;;6.27;3.80;;;18.70;99.90;;;;;;5018470;28;20519;-60
2022/07/18 06:08:08;;;;;;;6.60;3.40;;;19.00;99.90;;;;;;5018546;28;20598;-60
2022/07/18 06:10:35;;;;;;;20.20;4.27;;;19.50;99.90;;;;;;5018057;28;20908;-59
2022/07/18 06:13:04;;;;;;;3.10;2.80;;;19.80;99.90;;;;;;5018014;28;20495;-59
2022/07/18 06:15:32;;;;;;;3.03;2.47;;;20.30;99.90;;;;;;5018128;28;20566;-60
2022/07/18 06:18:00;;;;;;;2.80;2.10;;;20.60;99.90;;;;;;5017107;28;20468;-60
2022/07/18 06:20:28;;;;;;;2.73;2.53;;;20.90;99.90;;;;;;5017438;28;20487;-60
2022/07/18 06:23:03;;;;;;;2.97;2.23;;;21.00;99.90;;;;;;5017583;28;20510;-60
2022/07/18 06:25:30;;;;;;;4.03;2.43;;;21.20;99.90;;;;;;5018038;28;20542;-60
2022/07/18 06:27:57;;;;;;;5.40;2.50;;;21.50;99.90;;;;;;5018097;28;20554;-60
2022/07/18 06:30:26;;;;;;;3.30;2.33;;;21.80;99.90;;;;;;5016717;28;20470;-60
2022/07/18 06:32:54;;;;;;;3.73;2.53;;;22.10;99.90;;;;;;5017065;28;20463;-58
2022/07/18 06:35:21;;;;;;;3.67;2.40;;;22.30;99.90;;;;;;5017502;28;20755;-60
2022/07/18 06:37:48;;;;;;;4.30;3.20;;;22.60;99.90;;;;;;5017159;28;20470;-60
2022/07/18 06:40:15;;;;;;;5.40;3.20;;;22.60;99.90;;;;;;5016858;28;20551;-60
2022/07/18 06:42:46;;;;;;;3.40;2.43;;;23.00;99.90;;;;;;5016070;28;20590;-61
2022/07/18 06:45:13;;;;;;;3.93;2.80;;;23.10;99.90;;;;;;5015921;28;20452;-60
2022/07/18 06:47:43;;;;;;;2.60;2.20;;;23.40;99.90;;;;;;5016947;28;20442;-60
2022/07/18 06:50:17;;;;;;;4.23;2.57;;;23.50;99.90;;;;;;5016644;28;20624;-60
2022/07/18 06:52:47;;;;;;;4.33;2.90;;;23.80;99.90;;;;;;5017231;28;20566;-60
2022/07/18 06:55:15;;;;;;;2.73;2.50;;;24.10;99.90;;;;;;5014759;28;20534;-60
2022/07/18 06:57:43;;;;;;;4.10;2.50;;;24.30;99.90;;;;;;5015159;28;20511;-60
2022/07/18 07:00:15;;;;;;;2.70;2.50;;;24.60;99.90;;;;;;5015595;28;20471;-60
2022/07/18 07:02:47;;;;;;;5.13;2.20;;;24.90;99.90;;;;;;5016354;28;20863;-61
2022/07/18 07:05:15;;;;;;;4.50;2.60;;;25.40;99.90;;;;;;5017366;28;20583;-60
2022/07/18 07:07:42;;;;;;;2.60;2.27;;;25.30;99.90;;;;;;5015706;28;20513;-60
2022/07/18 07:10:10;;;;;;;4.23;2.47;;;25.60;99.90;;;;;;5002965;28;20770;-60
2022/07/18 07:12:41;;;;;;;2.70;2.23;;;25.90;99.90;;;;;;4997260;28;20492;-60
2022/07/18 07:15:13;;;;;;;7.80;2.20;;;26.10;99.90;;;;;;4995899;28;20552;-60
2022/07/18 07:17:44;;;;;;;4.70;2.60;;;26.30;99.90;;;;;;4996042;28;20783;-60
2022/07/18 07:20:13;;;;;;;3.90;2.63;;;26.60;99.90;;;;;;4996416;28;20464;-60
2022/07/18 07:22:45;;;;;;;2.67;2.20;;;26.80;99.90;;;;;;4996545;28;20492;-60
2022/07/18 07:25:15;;;;;;;2.50;2.30;;;26.80;99.90;;;;;;4996792;28;20440;-60
2022/07/18 07:27:44;;;;;;;4.10;2.37;;;26.80;99.90;;;;;;4996305;28;20487;-61
2022/07/18 07:30:13;;;;;;;2.53;2.27;;;27.10;99.90;;;;;;4997096;28;20469;-60
2022/07/18 07:32:47;;;;;;;2.80;2.50;;;27.30;99.90;;;;;;4997011;28;20913;-61
2022/07/18 07:35:22;;;;;;;3.80;2.50;;;27.60;99.90;;;;;;4997652;28;20508;-61
2022/07/18 07:37:55;;;;;;;2.43;2.23;;;27.80;99.90;;;;;;4997698;28;20563;-61
2022/07/18 07:40:27;;;;;;;5.30;3.20;;;28.00;99.90;;;;;;4996981;28;20453;-61
2022/07/18 07:43:12;;;;;;;5.63;2.70;;;28.20;99.90;;;;;;5000748;28;20499;-61
2022/07/18 07:45:40;;;;;;;2.73;2.50;;;28.40;99.90;;;;;;5001014;28;20543;-61
2022/07/18 07:48:09;;;;;;;2.50;2.23;;;28.20;99.90;;;;;;5001010;28;20846;-62
2022/07/18 07:50:39;;;;;;;8.43;2.60;;;28.30;99.90;;;;;;5000789;28;20901;-61
2022/07/18 07:53:08;;;;;;;3.50;2.90;;;28.20;99.90;;;;;;5011008;28;20794;-60
2022/07/18 07:55:36;;;;;;;3.60;2.63;;;28.30;99.90;;;;;;5020796;28;20476;-61
2022/07/18 07:58:06;;;;;;;3.63;2.80;;;28.50;99.90;;;;;;5020651;28;20916;-61
2022/07/18 08:00:34;;;;;;;4.13;3.37;;;28.70;99.90;;;;;;5020203;28;20558;-62
2022/07/18 08:03:06;;;;;;;3.53;2.73;;;29.00;99.90;;;;;;5018388;28;20518;-62
2022/07/18 08:05:46;;;;;;;3.60;3.30;;;29.20;99.90;;;;;;5018701;28;20495;-61
2022/07/18 08:08:14;;;;;;;2.80;2.53;;;29.10;99.90;;;;;;5000509;28;20464;-61
2022/07/18 08:10:42;;;;;;;4.30;2.57;;;29.20;99.90;;;;;;5000570;28;20469;-61
2022/07/18 08:13:10;;;;;;;3.57;2.43;;;29.70;99.90;;;;;;5000664;28;20576;-61
2022/07/18 08:15:40;;;;;;;2.77;2.57;;;29.90;99.90;;;;;;5000289;28;20551;-61
2022/07/18 08:18:10;;;;;;;3.43;2.70;;;29.90;99.90;;;;;;5001331;28;20464;-61
2022/07/18 08:20:41;;;;;;;6.90;2.73;;;30.10;99.90;;;;;;5000299;28;20500;-61
2022/07/18 08:23:12;;;;;;;2.27;2.07;;;30.00;99.90;;;;;;4999972;28;20525;-60
2022/07/18 08:25:44;;;;;;;5.13;3.00;;;29.90;99.90;;;;;;5000692;28;20559;-61
2022/07/18 08:28:12;;;;;;;2.67;2.47;;;29.90;99.90;;;;;;4999253;28;20465;-61
2022/07/18 08:30:40;;;;;;;2.93;2.50;;;30.20;99.90;;;;;;5001761;28;20907;-61
2022/07/18 08:33:08;;;;;;;4.83;2.90;;;30.60;99.90;;;;;;5020173;28;20566;-61
2022/07/18 08:35:44;;;;;;;2.50;2.30;;;30.90;99.90;;;;;;5019492;28;20468;-61
2022/07/18 08:38:11;;;;;;;2.90;2.50;;;31.20;99.90;;;;;;5019114;28;20558;-61
2022/07/18 08:40:39;;;;;;;3.10;2.80;;;31.00;99.90;;;;;;5019777;28;20468;-62
2022/07/18 08:43:07;;;;;;;2.53;2.33;;;30.80;99.90;;;;;;5019784;28;20590;-58
2022/07/18 08:45:35;;;;;;;4.73;3.00;;;30.90;99.90;;;;;;5019658;28;20463;-61
2022/07/18 08:48:03;;;;;;;4.20;3.10;;;31.00;99.90;;;;;;5019525;28;20779;-60
2022/07/18 08:50:41;;;;;;;2.63;2.43;;;31.40;99.90;;;;;;5019711;28;20930;-61
2022/07/18 08:53:10;;;;;;;3.83;2.23;;;31.40;99.90;;;;;;5015709;28;20831;-61
2022/07/18 08:55:37;;;;;;;2.13;1.93;;;31.60;99.90;;;;;;5019217;28;20464;-61
2022/07/18 08:58:06;;;;;;;2.93;2.20;;;31.60;99.90;;;;;;5018771;28;20938;-61
2022/07/18 09:00:36;;;;;;;2.67;2.47;;;31.90;99.90;;;;;;5017830;28;20464;-61
2022/07/18 09:03:05;;;;;;;2.53;2.30;;;32.10;99.90;;;;;;5019165;28;21030;-61
2022/07/18 09:05:34;;;;;;;2.60;2.20;;;32.40;99.90;;;;;;5019349;28;20948;-61
2022/07/18 09:08:16;;;;;;;2.70;2.50;;;32.20;99.90;;;;;;5017873;28;20537;-62
2022/07/18 09:10:53;;;;;;;3.63;3.03;;;32.20;99.90;;;;;;5018856;28;20443;-61
2022/07/18 09:13:25;;;;;;;4.63;3.07;;;32.40;99.90;;;;;;5019058;28;20566;-61
2022/07/18 09:16:03;;;;;;;3.70;2.73;;;32.70;99.90;;;;;;5019415;28;20470;-61
2022/07/18 09:18:31;;;;;;;3.93;2.30;;;33.20;99.90;;;;;;5018909;28;20464;-61
2022/07/18 09:21:05;;;;;;;2.87;2.47;;;33.10;99.90;;;;;;5018400;28;20542;-61
2022/07/18 09:23:35;;;;;;;2.87;2.30;;;33.00;99.90;;;;;;5018693;28;20492;-61
2022/07/18 09:26:04;;;;;;;3.23;2.60;;;32.80;99.90;;;;;;5018254;28;20940;-61
2022/07/18 09:28:47;;;;;;;3.70;3.37;;;32.20;99.90;;;;;;5017495;28;20971;-59
2022/07/18 09:31:20;;;;;;;4.03;3.00;;;32.10;99.90;;;;;;5017791;28;20910;-61
2022/07/18 09:34:00;;;;;;;4.97;2.70;;;32.40;99.90;;;;;;5018843;28;20460;-60
2022/07/18 09:36:29;;;;;;;4.10;2.27;;;32.50;99.90;;;;;;5017517;28;20460;-60
2022/07/18 09:39:01;;;;;;;5.50;3.00;;;32.40;99.90;;;;;;5018099;28;20471;-62
2022/07/18 09:41:32;;;;;;;3.07;2.77;;;33.00;99.90;;;;;;5018336;28;20471;-64
2022/07/18 09:43:59;;;;;;;2.63;2.43;;;33.40;99.90;;;;;;5018239;28;20787;-62
2022/07/18 09:46:27;;;;;;;4.30;3.00;;;33.10;99.90;;;;;;5017979;28;20972;-62
2022/07/18 09:49:09;;;;;;;3.80;2.80;;;33.40;99.90;;;;;;5016756;28;20590;-62
2022/07/18 09:51:48;;;;;;;2.63;2.43;;;33.90;99.90;;;;;;5017790;28;20472;-61
2022/07/18 09:54:22;;;;;;;5.83;2.93;;;33.40;99.90;;;;;;5018404;28;20963;-62
2022/07/18 09:56:51;;;;;;;3.77;3.00;;;33.40;99.90;;;;;;5015809;28;20785;-61
2022/07/18 09:59:18;;;;;;;3.27;2.63;;;33.30;99.90;;;;;;5017269;28;20577;-61
2022/07/18 10:01:49;;;;;;;3.83;2.83;;;34.00;99.90;;;;;;5017741;28;20837;-61
2022/07/18 10:04:20;;;;;;;4.27;3.03;;;34.50;99.90;;;;;;5015970;28;20495;-60
2022/07/18 10:06:53;;;;;;;3.80;3.37;;;34.40;99.90;;;;;;5016464;28;20522;-62
2022/07/18 10:09:21;;;;;;;2.73;2.53;;;34.50;99.90;;;;;;5017149;28;20450;-60
2022/07/18 10:11:52;;;;;;;3.37;3.10;;;34.50;99.90;;;;;;5015967;28;20986;-62
2022/07/18 10:14:21;;;;;;;2.77;2.57;;;34.20;99.90;;;;;;5016348;28;20471;-61
2022/07/18 10:16:49;;;;;;;3.10;2.80;;;34.40;99.90;;;;;;5015850;28;20553;-62
2022/07/18 10:19:18;;;;;;;4.30;2.70;;;34.60;99.90;;;;;;5016774;28;20475;-61
2022/07/18 10:21:50;;;;;;;3.03;2.73;;;34.90;99.90;;;;;;5017639;28;20768;-62
2022/07/18 10:24:18;;;;;;;3.50;3.20;;;34.70;99.90;;;;;;5017356;28;20574;-61
2022/07/18 10:27:13;;;;;;;2.87;2.67;;;35.00;99.90;;;;;;5016871;28;20467;-61
2022/07/18 10:29:40;;;;;;;3.07;2.87;;;35.10;99.90;;;;;;5017659;28;20960;-61
2022/07/18 10:32:10;;;;;;;3.67;3.37;;;35.60;99.90;;;;;;5017331;28;20953;-61
2022/07/18 10:34:41;;;;;;;3.10;2.60;;;35.60;99.90;;;;;;5017861;28;20460;-61
2022/07/18 10:37:10;;;;;;;2.77;2.57;;;34.90;99.90;;;;;;5015311;28;20507;-61
2022/07/18 10:39:50;;;;;;;2.93;2.73;;;34.50;99.90;;;;;;5017642;28;20562;-60
2022/07/18 10:42:24;;;;;;;3.50;3.20;;;34.90;99.90;;;;;;5015700;28;20475;-62
2022/07/18 10:44:52;;;;;;;3.30;3.00;;;34.90;99.90;;;;;;5013694;28;20557;-62
2022/07/18 10:47:30;;;;;;;3.53;3.33;;;34.90;99.90;;;;;;5012653;28;20583;-62
2022/07/18 10:50:11;;;;;;;3.03;2.83;;;34.70;99.90;;;;;;4995567;28;20495;-62
2022/07/18 10:53:05;;;;;;;3.70;2.60;;;34.90;99.90;;;;;;4995570;28;20834;-61
2022/07/18 10:55:35;;;;;;;3.10;2.90;;;34.90;99.90;;;;;;4996446;28;20460;-61
2022/07/18 10:58:24;;;;;;;4.60;2.93;;;35.40;99.90;;;;;;4997650;28;20468;-62
2022/07/18 11:01:00;;;;;;;4.10;2.83;;;35.30;99.90;;;;;;4996917;28;20438;-62
2022/07/18 11:03:29;;;;;;;3.97;3.67;;;35.50;99.90;;;;;;4997880;28;20464;-62
2022/07/18 11:06:03;;;;;;;3.27;3.07;;;36.00;99.90;;;;;;4996320;28;20464;-62
2022/07/18 11:08:33;;;;;;;3.53;3.30;;;36.30;99.90;;;;;;4996049;28;20710;-61
2022/07/18 11:11:22;;;;;;;2.90;2.60;;;36.20;99.90;;;;;;4996910;28;20471;-61
2022/07/18 11:13:53;;;;;;;8.23;3.10;;;36.20;99.90;;;;;;4990297;28;20736;-61
2022/07/18 11:16:28;;;;;;;3.10;2.87;;;36.00;99.90;;;;;;4997649;28;20472;-60
2022/07/18 11:19:31;;;;;;;4.47;3.03;;;36.40;99.90;;;;;;5001349;28;20463;-62
2022/07/18 11:22:01;;;;;;;4.13;3.20;;;35.90;99.90;;;;;;5000043;28;20495;-62
2022/07/18 11:24:29;;;;;;;3.10;2.80;;;36.50;99.90;;;;;;5001675;28;20571;-62
2022/07/18 11:26:59;;;;;;;2.73;2.53;;;36.50;99.90;;;;;;5000962;28;20617;-62
2022/07/18 11:29:41;;;;;;;2.83;2.63;;;36.60;99.90;;;;;;5001275;28;20921;-62
2022/07/18 11:32:12;;;;;;;3.05;2.75;;;36.50;99.90;;;;;;5001856;28;20463;-62
2022/07/18 11:34:49;;;;;;;4.33;2.90;;;37.20;99.90;;;;;;5001184;28;20284;-61
2022/07/18 11:37:17;;;;;;;3.30;2.83;;;37.20;99.90;;;;;;5001292;28;20896;-62
2022/07/18 11:39:47;;;;;;;4.10;3.70;;;37.30;99.90;;;;;;5001387;28;20523;-61
2022/07/18 11:42:15;;;;;;;3.58;3.28;;;37.30;99.90;;;;;;5000734;28;20251;-62
2022/07/18 11:44:45;;;;;;;2.90;2.70;;;36.60;99.90;;;;;;5001135;28;20439;-62
2022/07/18 11:47:16;;;;;;;3.60;3.30;;;36.70;99.90;;;;;;5000974;28;20213;-61
2022/07/18 11:49:56;;;;;;;5.47;3.37;;;37.20;99.90;;;;;;5016707;28;20244;-61
2022/07/18 11:52:23;;;;;;;3.43;3.07;;;36.10;99.90;;;;;;5020683;28;20684;-61
2022/07/18 11:54:55;;;;;;;3.40;2.93;;;36.50;99.90;;;;;;5020488;28;20645;-62
2022/07/18 11:57:29;;;;;;;3.73;2.87;;;36.70;99.90;;;;;;5020114;28;20867;-62
2022/07/18 11:59:59;;;;;;;3.00;2.67;;;37.30;99.90;;;;;;5020486;28;20442;-62
2022/07/18 12:03:05;;;;;;;4.60;3.27;;;36.70;99.90;;;;;;5020335;28;20614;-62
2022/07/18 12:05:33;;;;;;;2.85;2.65;;;36.10;99.90;;;;;;5017889;28;20307;-59
2022/07/18 12:08:00;;;;;;;4.22;3.00;;;36.50;99.90;;;;;;5020380;28;20217;-61
2022/07/18 12:10:28;;;;;;;3.05;2.85;;;36.70;99.90;;;;;;5018344;28;20606;-62
2022/07/18 12:12:58;;;;;;;2.85;2.65;;;36.70;99.90;;;;;;5020073;28;20208;-62
2022/07/18 12:15:39;;;;;;;3.20;2.93;;;37.00;99.90;;;;;;5020430;28;20228;-59
2022/07/18 12:18:09;;;;;;;2.60;2.50;;;36.60;99.90;;;;;;5018437;28;20479;-62
2022/07/18 12:20:36;;;;;;;3.10;2.90;;;36.40;99.90;;;;;;5018727;28;20753;-62
2022/07/18 12:23:12;;;;;;;2.40;2.20;;;36.70;99.90;;;;;;5019370;28;20474;-62
2022/07/18 12:25:44;;;;;;;2.83;2.63;;;36.90;99.90;;;;;;5018269;28;20471;-61
2022/07/18 12:28:16;;;;;;;3.35;3.05;;;36.70;99.90;;;;;;5019345;28;20669;-62
2022/07/18 12:30:45;;;;;;;3.38;2.97;;;37.20;99.90;;;;;;5019973;28;20298;-62
2022/07/18 12:33:16;;;;;;;4.00;3.00;;;37.00;99.90;;;;;;5019724;28;20215;-61
2022/07/18 12:35:43;;;;;;;3.45;3.10;;;36.90;99.90;;;;;;5020015;28;20232;-61
2022/07/18 12:38:12;;;;;;;3.83;3.53;;;37.40;99.90;;;;;;5019639;28;20215;-62
2022/07/18 12:40:45;;;;;;;3.35;2.75;;;37.80;99.90;;;;;;5019414;28;20209;-62
2022/07/18 12:43:14;;;;;;;3.53;3.20;;;38.50;99.90;;;;;;5019963;28;20668;-62
2022/07/18 12:45:44;;;;;;;3.80;3.60;;;38.30;99.90;;;;;;5019779;28;20299;-62
2022/07/18 12:48:13;;;;;;;4.25;3.42;;;37.90;99.90;;;;;;5019213;28;20244;-61
2022/07/18 12:50:45;;;;;;;3.53;3.22;;;38.00;99.90;;;;;;5019347;28;20533;-61
2022/07/18 12:53:15;;;;;;;3.28;2.53;;;37.70;99.90;;;;;;5018627;28;20280;-62
2022/07/18 12:55:45;;;;;;;3.20;2.95;;;37.70;99.90;;;;;;5017905;28;20327;-61
2022/07/18 12:58:14;;;;;;;3.10;2.90;;;37.10;99.90;;;;;;5017163;28;20215;-61
2022/07/18 13:00:49;;;;;;;2.65;2.45;;;37.70;99.90;;;;;;5018109;28;20212;-61
2022/07/18 13:03:20;;;;;;;3.38;2.72;;;37.90;99.90;;;;;;5019319;28;20239;-61
2022/07/18 13:05:48;;;;;;;3.85;3.28;;;37.80;99.90;;;;;;5016733;28;20205;-62
2022/07/18 13:08:19;;;;;;;5.53;3.10;;;37.60;99.90;;;;;;5018348;28;20310;-62